sensor_id;sensor_type;location;lat;lon;timestamp;P1;durP1;ratioP1;P2;durP2;ratioP2
17153;SDS011;8692;52.164;7.558;2023-02-11T00:01:36;53.73;;;30.40;;
17153;SDS011;8692;52.164;7.558;2023-02-11T00:04:04;44.73;;;30.00;;
17153;SDS011;8692;52.164;7.558;2023-02-11T00:06:33;46.37;;;30.77;;
17153;SDS011;8692;52.164;7.558;2023-02-11T00:09:02;49.57;;;32.97;;
17153;SDS011;8692;52.164;7.558;2023-02-11T00:11:31;50.47;;;30.07;;
17153;SDS011;8692;52.164;7.558;2023-02-11T00:14:00;53.83;;;31.60;;
17153;SDS011;8692;52.164;7.558;2023-02-11T00:16:31;50.77;;;31.43;;
17153;SDS011;8692;52.164;7.558;2023-02-11T00:19:02;48.93;;;31.77;;
17153;SDS011;8692;52.164;7.558;2023-02-11T00:21:32;59.63;;;34.10;;
17153;SDS011;8692;52.164;7.558;2023-02-11T00:24:00;48.00;;;31.20;;
17153;SDS011;8692;52.164;7.558;2023-02-11T00:26:32;47.87;;;31.07;;
17153;SDS011;8692;52.164;7.558;2023-02-11T00:29:02;54.20;;;33.03;;
17153;SDS011;8692;52.164;7.558;2023-02-11T00:31:32;50.00;;;31.47;;
17153;SDS011;8692;52.164;7.558;2023-02-11T00:34:03;46.87;;;30.73;;
17153;SDS011;8692;52.164;7.558;2023-02-11T00:36:32;49.07;;;31.60;;
17153;SDS011;8692;52.164;7.558;2023-02-11T00:39:00;46.17;;;30.00;;
17153;SDS011;8692;52.164;7.558;2023-02-11T00:41:28;47.27;;;28.80;;
17153;SDS011;8692;52.164;7.558;2023-02-11T00:44:00;50.10;;;30.43;;
17153;SDS011;8692;52.164;7.558;2023-02-11T00:46:28;48.67;;;29.53;;
17153;SDS011;8692;52.164;7.558;2023-02-11T00:48:58;45.03;;;29.43;;
17153;SDS011;8692;52.164;7.558;2023-02-11T00:51:26;47.03;;;28.93;;
17153;SDS011;8692;52.164;7.558;2023-02-11T00:53:57;43.23;;;28.40;;
17153;SDS011;8692;52.164;7.558;2023-02-11T00:56:28;49.40;;;29.90;;
17153;SDS011;8692;52.164;7.558;2023-02-11T00:58:56;45.17;;;29.50;;
17153;SDS011;8692;52.164;7.558;2023-02-11T01:01:26;50.30;;;29.03;;
17153;SDS011;8692;52.164;7.558;2023-02-11T01:03:55;44.43;;;28.77;;
17153;SDS011;8692;52.164;7.558;2023-02-11T01:06:24;43.50;;;28.90;;
17153;SDS011;8692;52.164;7.558;2023-02-11T01:08:52;41.03;;;27.70;;
17153;SDS011;8692;52.164;7.558;2023-02-11T01:11:21;43.13;;;28.07;;
17153;SDS011;8692;52.164;7.558;2023-02-11T01:13:49;40.50;;;26.80;;
17153;SDS011;8692;52.164;7.558;2023-02-11T01:16:18;41.97;;;26.43;;
17153;SDS011;8692;52.164;7.558;2023-02-11T01:18:47;41.33;;;25.67;;
17153;SDS011;8692;52.164;7.558;2023-02-11T01:21:16;39.20;;;27.03;;
17153;SDS011;8692;52.164;7.558;2023-02-11T01:23:46;47.10;;;28.23;;
17153;SDS011;8692;52.164;7.558;2023-02-11T01:26:14;44.07;;;26.67;;
17153;SDS011;8692;52.164;7.558;2023-02-11T01:28:42;44.83;;;25.33;;
17153;SDS011;8692;52.164;7.558;2023-02-11T01:31:10;37.47;;;25.03;;
17153;SDS011;8692;52.164;7.558;2023-02-11T01:33:39;37.00;;;25.60;;
17153;SDS011;8692;52.164;7.558;2023-02-11T01:36:09;40.67;;;25.07;;
17153;SDS011;8692;52.164;7.558;2023-02-11T01:38:38;38.87;;;25.80;;
17153;SDS011;8692;52.164;7.558;2023-02-11T01:41:08;39.47;;;24.73;;
17153;SDS011;8692;52.164;7.558;2023-02-11T01:43:40;38.80;;;25.03;;
17153;SDS011;8692;52.164;7.558;2023-02-11T01:48:58;37.73;;;23.33;;
17153;SDS011;8692;52.164;7.558;2023-02-11T01:51:31;37.23;;;23.17;;
17153;SDS011;8692;52.164;7.558;2023-02-11T01:54:06;34.87;;;23.80;;
17153;SDS011;8692;52.164;7.558;2023-02-11T01:57:05;32.83;;;22.03;;
17153;SDS011;8692;52.164;7.558;2023-02-11T01:59:55;37.37;;;24.07;;
17153;SDS011;8692;52.164;7.558;2023-02-11T02:02:41;33.63;;;22.53;;
17153;SDS011;8692;52.164;7.558;2023-02-11T02:05:18;37.63;;;22.20;;
17153;SDS011;8692;52.164;7.558;2023-02-11T02:07:53;35.40;;;21.93;;
17153;SDS011;8692;52.164;7.558;2023-02-11T02:10:29;32.33;;;21.40;;
17153;SDS011;8692;52.164;7.558;2023-02-11T02:13:01;36.57;;;21.63;;
17153;SDS011;8692;52.164;7.558;2023-02-11T02:15:30;34.33;;;20.67;;
17153;SDS011;8692;52.164;7.558;2023-02-11T02:18:10;41.30;;;21.13;;
17153;SDS011;8692;52.164;7.558;2023-02-11T02:27:23;34.53;;;22.73;;
17153;SDS011;8692;52.164;7.558;2023-02-11T02:30:19;39.50;;;21.67;;
17153;SDS011;8692;52.164;7.558;2023-02-11T02:33:08;30.97;;;20.40;;
17153;SDS011;8692;52.164;7.558;2023-02-11T02:35:52;33.10;;;20.60;;
17153;SDS011;8692;52.164;7.558;2023-02-11T02:38:29;26.83;;;18.40;;
17153;SDS011;8692;52.164;7.558;2023-02-11T02:41:02;30.30;;;18.70;;
17153;SDS011;8692;52.164;7.558;2023-02-11T02:43:34;29.37;;;19.63;;
17153;SDS011;8692;52.164;7.558;2023-02-11T02:46:09;31.63;;;19.10;;
17153;SDS011;8692;52.164;7.558;2023-02-11T02:48:43;31.47;;;19.17;;
17153;SDS011;8692;52.164;7.558;2023-02-11T02:54:20;33.23;;;17.53;;
17153;SDS011;8692;52.164;7.558;2023-02-11T02:57:01;29.30;;;17.60;;
17153;SDS011;8692;52.164;7.558;2023-02-11T02:59:38;24.47;;;16.83;;
17153;SDS011;8692;52.164;7.558;2023-02-11T03:02:19;28.60;;;19.83;;
17153;SDS011;8692;52.164;7.558;2023-02-11T03:04:55;33.23;;;20.37;;
17153;SDS011;8692;52.164;7.558;2023-02-11T03:07:32;41.07;;;25.23;;
17153;SDS011;8692;52.164;7.558;2023-02-11T03:10:11;34.60;;;18.93;;
17153;SDS011;8692;52.164;7.558;2023-02-11T03:12:43;28.37;;;16.13;;
17153;SDS011;8692;52.164;7.558;2023-02-11T03:15:16;29.37;;;18.10;;
17153;SDS011;8692;52.164;7.558;2023-02-11T03:17:48;25.37;;;16.20;;
17153;SDS011;8692;52.164;7.558;2023-02-11T03:20:21;25.97;;;16.20;;
17153;SDS011;8692;52.164;7.558;2023-02-11T03:22:51;25.40;;;16.53;;
17153;SDS011;8692;52.164;7.558;2023-02-11T03:25:24;27.53;;;17.10;;
17153;SDS011;8692;52.164;7.558;2023-02-11T03:28:01;26.77;;;15.60;;
17153;SDS011;8692;52.164;7.558;2023-02-11T03:30:33;22.80;;;17.27;;
17153;SDS011;8692;52.164;7.558;2023-02-11T03:33:11;29.13;;;16.40;;
17153;SDS011;8692;52.164;7.558;2023-02-11T03:35:48;24.57;;;15.47;;
17153;SDS011;8692;52.164;7.558;2023-02-11T03:38:20;25.63;;;16.23;;
17153;SDS011;8692;52.164;7.558;2023-02-11T03:40:51;24.87;;;16.23;;
17153;SDS011;8692;52.164;7.558;2023-02-11T03:43:24;25.93;;;18.40;;
17153;SDS011;8692;52.164;7.558;2023-02-11T03:45:55;26.97;;;16.73;;
17153;SDS011;8692;52.164;7.558;2023-02-11T03:48:26;29.60;;;16.63;;
17153;SDS011;8692;52.164;7.558;2023-02-11T03:51:00;27.97;;;16.50;;
17153;SDS011;8692;52.164;7.558;2023-02-11T03:53:30;23.43;;;15.87;;
17153;SDS011;8692;52.164;7.558;2023-02-11T03:56:01;25.20;;;16.07;;
17153;SDS011;8692;52.164;7.558;2023-02-11T03:58:35;23.53;;;17.17;;
17153;SDS011;8692;52.164;7.558;2023-02-11T04:01:04;28.73;;;16.93;;
17153;SDS011;8692;52.164;7.558;2023-02-11T04:03:37;30.50;;;16.67;;
17153;SDS011;8692;52.164;7.558;2023-02-11T04:06:07;26.57;;;16.53;;
17153;SDS011;8692;52.164;7.558;2023-02-11T04:08:35;26.73;;;17.07;;
17153;SDS011;8692;52.164;7.558;2023-02-11T04:11:10;28.73;;;16.10;;
17153;SDS011;8692;52.164;7.558;2023-02-11T04:13:38;25.87;;;17.40;;
17153;SDS011;8692;52.164;7.558;2023-02-11T04:16:07;25.80;;;16.87;;
17153;SDS011;8692;52.164;7.558;2023-02-11T04:18:37;28.20;;;17.73;;
17153;SDS011;8692;52.164;7.558;2023-02-11T04:21:06;27.10;;;17.63;;
17153;SDS011;8692;52.164;7.558;2023-02-11T04:23:37;34.77;;;18.43;;
17153;SDS011;8692;52.164;7.558;2023-02-11T04:26:05;32.03;;;18.03;;
17153;SDS011;8692;52.164;7.558;2023-02-11T04:28:33;30.10;;;17.27;;
17153;SDS011;8692;52.164;7.558;2023-02-11T04:31:04;24.07;;;17.30;;
17153;SDS011;8692;52.164;7.558;2023-02-11T04:33:32;28.67;;;17.53;;
17153;SDS011;8692;52.164;7.558;2023-02-11T04:36:02;27.20;;;16.83;;
17153;SDS011;8692;52.164;7.558;2023-02-11T04:38:32;27.17;;;16.33;;
17153;SDS011;8692;52.164;7.558;2023-02-11T04:41:02;30.93;;;18.40;;
17153;SDS011;8692;52.164;7.558;2023-02-11T04:43:30;31.60;;;17.50;;
17153;SDS011;8692;52.164;7.558;2023-02-11T04:46:00;28.17;;;16.87;;
17153;SDS011;8692;52.164;7.558;2023-02-11T04:48:28;23.73;;;16.77;;
17153;SDS011;8692;52.164;7.558;2023-02-11T04:51:00;24.70;;;15.97;;
17153;SDS011;8692;52.164;7.558;2023-02-11T04:53:28;31.87;;;17.00;;
17153;SDS011;8692;52.164;7.558;2023-02-11T04:55:57;28.20;;;15.93;;
17153;SDS011;8692;52.164;7.558;2023-02-11T04:58:25;27.67;;;16.27;;
17153;SDS011;8692;52.164;7.558;2023-02-11T05:00:53;24.33;;;16.50;;
17153;SDS011;8692;52.164;7.558;2023-02-11T05:03:24;23.73;;;17.30;;
17153;SDS011;8692;52.164;7.558;2023-02-11T05:05:54;25.63;;;16.43;;
17153;SDS011;8692;52.164;7.558;2023-02-11T05:08:22;24.73;;;15.03;;
17153;SDS011;8692;52.164;7.558;2023-02-11T05:10:53;26.33;;;16.30;;
17153;SDS011;8692;52.164;7.558;2023-02-11T05:13:22;27.80;;;15.40;;
17153;SDS011;8692;52.164;7.558;2023-02-11T05:15:53;27.07;;;16.67;;
17153;SDS011;8692;52.164;7.558;2023-02-11T05:18:21;25.83;;;16.77;;
17153;SDS011;8692;52.164;7.558;2023-02-11T05:20:49;30.50;;;16.47;;
17153;SDS011;8692;52.164;7.558;2023-02-11T05:23:17;25.00;;;16.93;;
17153;SDS011;8692;52.164;7.558;2023-02-11T05:25:45;27.43;;;17.00;;
17153;SDS011;8692;52.164;7.558;2023-02-11T05:28:14;26.30;;;16.37;;
17153;SDS011;8692;52.164;7.558;2023-02-11T05:30:44;34.77;;;17.00;;
17153;SDS011;8692;52.164;7.558;2023-02-11T05:33:12;26.97;;;15.10;;
17153;SDS011;8692;52.164;7.558;2023-02-11T05:35:40;25.47;;;15.43;;
17153;SDS011;8692;52.164;7.558;2023-02-11T05:38:08;30.77;;;16.43;;
17153;SDS011;8692;52.164;7.558;2023-02-11T05:40:36;25.50;;;16.07;;
17153;SDS011;8692;52.164;7.558;2023-02-11T05:43:05;26.43;;;17.13;;
17153;SDS011;8692;52.164;7.558;2023-02-11T05:45:33;20.83;;;15.47;;
17153;SDS011;8692;52.164;7.558;2023-02-11T05:48:02;23.73;;;15.43;;
17153;SDS011;8692;52.164;7.558;2023-02-11T05:50:31;23.63;;;15.40;;
17153;SDS011;8692;52.164;7.558;2023-02-11T05:53:02;30.80;;;16.57;;
17153;SDS011;8692;52.164;7.558;2023-02-11T05:55:31;24.03;;;14.73;;
17153;SDS011;8692;52.164;7.558;2023-02-11T05:58:01;36.07;;;17.93;;
17153;SDS011;8692;52.164;7.558;2023-02-11T06:00:30;32.97;;;16.23;;
17153;SDS011;8692;52.164;7.558;2023-02-11T06:02:58;25.67;;;16.30;;
17153;SDS011;8692;52.164;7.558;2023-02-11T06:05:28;31.47;;;17.53;;
17153;SDS011;8692;52.164;7.558;2023-02-11T06:07:56;27.13;;;16.80;;
17153;SDS011;8692;52.164;7.558;2023-02-11T06:10:24;27.13;;;16.60;;
17153;SDS011;8692;52.164;7.558;2023-02-11T06:12:52;29.33;;;17.47;;
17153;SDS011;8692;52.164;7.558;2023-02-11T06:15:21;25.67;;;16.67;;
17153;SDS011;8692;52.164;7.558;2023-02-11T06:17:51;36.77;;;18.00;;
17153;SDS011;8692;52.164;7.558;2023-02-11T06:20:19;33.87;;;17.90;;
17153;SDS011;8692;52.164;7.558;2023-02-11T06:22:51;25.13;;;17.47;;
17153;SDS011;8692;52.164;7.558;2023-02-11T06:25:19;25.20;;;16.70;;
17153;SDS011;8692;52.164;7.558;2023-02-11T06:27:47;35.30;;;17.73;;
17153;SDS011;8692;52.164;7.558;2023-02-11T06:30:15;27.57;;;17.37;;
17153;SDS011;8692;52.164;7.558;2023-02-11T06:32:46;40.97;;;18.20;;
17153;SDS011;8692;52.164;7.558;2023-02-11T06:35:14;33.50;;;18.73;;
17153;SDS011;8692;52.164;7.558;2023-02-11T06:37:42;33.17;;;17.17;;
17153;SDS011;8692;52.164;7.558;2023-02-11T06:40:12;28.97;;;17.93;;
17153;SDS011;8692;52.164;7.558;2023-02-11T06:42:40;30.07;;;18.33;;
17153;SDS011;8692;52.164;7.558;2023-02-11T06:45:11;37.00;;;19.53;;
17153;SDS011;8692;52.164;7.558;2023-02-11T06:47:39;36.23;;;19.40;;
17153;SDS011;8692;52.164;7.558;2023-02-11T06:50:10;30.93;;;20.73;;
17153;SDS011;8692;52.164;7.558;2023-02-11T06:52:40;29.43;;;18.67;;
17153;SDS011;8692;52.164;7.558;2023-02-11T06:55:08;33.80;;;19.97;;
17153;SDS011;8692;52.164;7.558;2023-02-11T06:57:39;35.67;;;20.30;;
17153;SDS011;8692;52.164;7.558;2023-02-11T07:00:10;31.53;;;18.40;;
17153;SDS011;8692;52.164;7.558;2023-02-11T07:02:42;41.83;;;20.43;;
17153;SDS011;8692;52.164;7.558;2023-02-11T07:05:10;25.87;;;18.47;;
17153;SDS011;8692;52.164;7.558;2023-02-11T07:07:40;31.37;;;20.40;;
17153;SDS011;8692;52.164;7.558;2023-02-11T07:10:08;36.27;;;20.60;;
17153;SDS011;8692;52.164;7.558;2023-02-11T07:12:37;31.63;;;21.93;;
17153;SDS011;8692;52.164;7.558;2023-02-11T07:15:07;35.03;;;21.20;;
17153;SDS011;8692;52.164;7.558;2023-02-11T07:17:35;34.77;;;22.23;;
17153;SDS011;8692;52.164;7.558;2023-02-11T07:20:04;38.80;;;21.37;;
17153;SDS011;8692;52.164;7.558;2023-02-11T07:22:34;33.27;;;20.93;;
17153;SDS011;8692;52.164;7.558;2023-02-11T07:25:05;34.57;;;22.83;;
17153;SDS011;8692;52.164;7.558;2023-02-11T07:27:34;40.93;;;23.67;;
17153;SDS011;8692;52.164;7.558;2023-02-11T07:30:02;36.07;;;22.50;;
17153;SDS011;8692;52.164;7.558;2023-02-11T07:32:34;40.03;;;22.37;;
17153;SDS011;8692;52.164;7.558;2023-02-11T07:35:02;36.20;;;22.17;;
17153;SDS011;8692;52.164;7.558;2023-02-11T07:37:32;35.80;;;21.13;;
17153;SDS011;8692;52.164;7.558;2023-02-11T07:40:00;43.20;;;23.37;;
17153;SDS011;8692;52.164;7.558;2023-02-11T07:42:33;37.40;;;22.70;;
17153;SDS011;8692;52.164;7.558;2023-02-11T07:45:04;40.40;;;23.50;;
17153;SDS011;8692;52.164;7.558;2023-02-11T07:47:35;42.43;;;24.10;;
17153;SDS011;8692;52.164;7.558;2023-02-11T07:50:04;43.50;;;23.37;;
17153;SDS011;8692;52.164;7.558;2023-02-11T07:52:33;37.87;;;23.53;;
17153;SDS011;8692;52.164;7.558;2023-02-11T07:55:01;41.63;;;26.73;;
17153;SDS011;8692;52.164;7.558;2023-02-11T07:57:32;49.23;;;23.43;;
17153;SDS011;8692;52.164;7.558;2023-02-11T08:00:03;45.77;;;24.93;;
17153;SDS011;8692;52.164;7.558;2023-02-11T08:02:37;44.47;;;24.70;;
17153;SDS011;8692;52.164;7.558;2023-02-11T08:05:05;45.80;;;24.67;;
17153;SDS011;8692;52.164;7.558;2023-02-11T08:07:34;42.60;;;25.53;;
17153;SDS011;8692;52.164;7.558;2023-02-11T08:10:02;47.93;;;25.47;;
17153;SDS011;8692;52.164;7.558;2023-02-11T08:12:30;47.77;;;25.40;;
17153;SDS011;8692;52.164;7.558;2023-02-11T08:15:01;43.07;;;25.00;;
17153;SDS011;8692;52.164;7.558;2023-02-11T08:17:29;45.47;;;25.10;;
17153;SDS011;8692;52.164;7.558;2023-02-11T08:19:59;48.50;;;26.80;;
17153;SDS011;8692;52.164;7.558;2023-02-11T08:22:29;43.17;;;24.67;;
17153;SDS011;8692;52.164;7.558;2023-02-11T08:25:00;47.57;;;24.80;;
17153;SDS011;8692;52.164;7.558;2023-02-11T08:27:29;39.97;;;25.97;;
17153;SDS011;8692;52.164;7.558;2023-02-11T08:29:57;50.00;;;27.07;;
17153;SDS011;8692;52.164;7.558;2023-02-11T08:32:27;42.00;;;24.33;;
17153;SDS011;8692;52.164;7.558;2023-02-11T08:34:55;41.70;;;27.23;;
17153;SDS011;8692;52.164;7.558;2023-02-11T08:37:24;45.20;;;26.10;;
17153;SDS011;8692;52.164;7.558;2023-02-11T08:39:53;43.77;;;25.97;;
17153;SDS011;8692;52.164;7.558;2023-02-11T08:42:21;46.97;;;25.33;;
17153;SDS011;8692;52.164;7.558;2023-02-11T08:44:49;44.80;;;25.80;;
17153;SDS011;8692;52.164;7.558;2023-02-11T08:47:17;43.93;;;25.40;;
17153;SDS011;8692;52.164;7.558;2023-02-11T08:49:46;46.37;;;28.83;;
17153;SDS011;8692;52.164;7.558;2023-02-11T08:52:14;41.63;;;26.23;;
17153;SDS011;8692;52.164;7.558;2023-02-11T08:54:43;54.20;;;27.00;;
17153;SDS011;8692;52.164;7.558;2023-02-11T08:57:14;40.93;;;25.93;;
17153;SDS011;8692;52.164;7.558;2023-02-11T08:59:44;42.80;;;25.73;;
17153;SDS011;8692;52.164;7.558;2023-02-11T09:02:14;40.63;;;25.23;;
17153;SDS011;8692;52.164;7.558;2023-02-11T09:04:42;47.20;;;24.90;;
17153;SDS011;8692;52.164;7.558;2023-02-11T09:07:11;45.23;;;25.23;;
17153;SDS011;8692;52.164;7.558;2023-02-11T09:09:41;46.57;;;26.20;;
17153;SDS011;8692;52.164;7.558;2023-02-11T09:12:13;38.57;;;25.00;;
17153;SDS011;8692;52.164;7.558;2023-02-11T09:14:43;47.27;;;26.97;;
17153;SDS011;8692;52.164;7.558;2023-02-11T09:17:11;40.83;;;26.17;;
17153;SDS011;8692;52.164;7.558;2023-02-11T09:19:39;46.70;;;25.33;;
17153;SDS011;8692;52.164;7.558;2023-02-11T09:22:10;43.93;;;26.60;;
17153;SDS011;8692;52.164;7.558;2023-02-11T09:24:38;42.53;;;27.70;;
17153;SDS011;8692;52.164;7.558;2023-02-11T09:27:08;45.60;;;27.80;;
17153;SDS011;8692;52.164;7.558;2023-02-11T09:29:38;44.63;;;26.70;;
17153;SDS011;8692;52.164;7.558;2023-02-11T09:32:06;45.07;;;27.37;;
17153;SDS011;8692;52.164;7.558;2023-02-11T09:34:35;43.90;;;26.13;;
17153;SDS011;8692;52.164;7.558;2023-02-11T09:37:03;40.60;;;25.37;;
17153;SDS011;8692;52.164;7.558;2023-02-11T09:39:31;44.10;;;26.17;;
17153;SDS011;8692;52.164;7.558;2023-02-11T09:42:14;40.73;;;25.50;;
17153;SDS011;8692;52.164;7.558;2023-02-11T09:44:59;45.87;;;25.83;;
17153;SDS011;8692;52.164;7.558;2023-02-11T09:47:29;38.27;;;24.93;;
17153;SDS011;8692;52.164;7.558;2023-02-11T09:50:00;46.80;;;27.60;;
17153;SDS011;8692;52.164;7.558;2023-02-11T09:52:35;44.10;;;26.87;;
17153;SDS011;8692;52.164;7.558;2023-02-11T09:55:14;42.63;;;26.57;;
17153;SDS011;8692;52.164;7.558;2023-02-11T09:57:48;44.83;;;26.27;;
17153;SDS011;8692;52.164;7.558;2023-02-11T10:00:18;42.77;;;25.10;;
17153;SDS011;8692;52.164;7.558;2023-02-11T10:02:57;46.37;;;27.80;;
17153;SDS011;8692;52.164;7.558;2023-02-11T10:05:39;41.47;;;26.97;;
17153;SDS011;8692;52.164;7.558;2023-02-11T10:08:18;54.03;;;34.77;;
17153;SDS011;8692;52.164;7.558;2023-02-11T10:10:54;43.90;;;27.00;;
17153;SDS011;8692;52.164;7.558;2023-02-11T10:13:34;50.63;;;28.30;;
17153;SDS011;8692;52.164;7.558;2023-02-11T10:16:14;41.33;;;26.93;;
17153;SDS011;8692;52.164;7.558;2023-02-11T10:19:00;38.07;;;25.73;;
17153;SDS011;8692;52.164;7.558;2023-02-11T10:21:50;42.40;;;25.90;;
17153;SDS011;8692;52.164;7.558;2023-02-11T10:24:28;41.37;;;27.33;;
17153;SDS011;8692;52.164;7.558;2023-02-11T10:26:57;42.47;;;26.37;;
17153;SDS011;8692;52.164;7.558;2023-02-11T10:29:32;47.77;;;27.70;;
17153;SDS011;8692;52.164;7.558;2023-02-11T10:32:05;40.97;;;26.47;;
17153;SDS011;8692;52.164;7.558;2023-02-11T10:34:42;42.30;;;26.13;;
17153;SDS011;8692;52.164;7.558;2023-02-11T10:37:12;44.97;;;26.37;;
17153;SDS011;8692;52.164;7.558;2023-02-11T10:39:40;42.40;;;26.73;;
17153;SDS011;8692;52.164;7.558;2023-02-11T10:42:09;41.53;;;26.97;;
17153;SDS011;8692;52.164;7.558;2023-02-11T10:44:42;42.00;;;26.97;;
17153;SDS011;8692;52.164;7.558;2023-02-11T10:47:24;45.30;;;27.73;;
17153;SDS011;8692;52.164;7.558;2023-02-11T10:49:57;47.33;;;26.53;;
17153;SDS011;8692;52.164;7.558;2023-02-11T10:52:29;47.23;;;28.13;;
17153;SDS011;8692;52.164;7.558;2023-02-11T10:55:01;43.70;;;27.17;;
17153;SDS011;8692;52.164;7.558;2023-02-11T10:57:36;45.93;;;27.60;;
17153;SDS011;8692;52.164;7.558;2023-02-11T11:00:18;44.57;;;26.37;;
17153;SDS011;8692;52.164;7.558;2023-02-11T11:03:15;46.93;;;27.50;;
17153;SDS011;8692;52.164;7.558;2023-02-11T11:05:48;44.67;;;25.90;;
17153;SDS011;8692;52.164;7.558;2023-02-11T11:08:18;48.70;;;27.50;;
17153;SDS011;8692;52.164;7.558;2023-02-11T11:10:48;43.40;;;27.00;;
17153;SDS011;8692;52.164;7.558;2023-02-11T11:13:29;72.37;;;50.07;;
17153;SDS011;8692;52.164;7.558;2023-02-11T11:16:09;59.57;;;40.73;;
17153;SDS011;8692;52.164;7.558;2023-02-11T11:18:46;51.80;;;33.90;;
17153;SDS011;8692;52.164;7.558;2023-02-11T11:21:17;67.53;;;42.20;;
17153;SDS011;8692;52.164;7.558;2023-02-11T11:23:48;48.23;;;33.47;;
17153;SDS011;8692;52.164;7.558;2023-02-11T11:26:23;51.00;;;36.72;;
17153;SDS011;8692;52.164;7.558;2023-02-11T11:28:57;52.57;;;37.40;;
17153;SDS011;8692;52.164;7.558;2023-02-11T11:31:29;55.43;;;37.40;;
17153;SDS011;8692;52.164;7.558;2023-02-11T11:34:12;47.53;;;33.13;;
17153;SDS011;8692;52.164;7.558;2023-02-11T11:36:51;51.13;;;32.03;;
17153;SDS011;8692;52.164;7.558;2023-02-11T11:39:22;48.13;;;32.70;;
17153;SDS011;8692;52.164;7.558;2023-02-11T11:41:56;39.13;;;27.37;;
17153;SDS011;8692;52.164;7.558;2023-02-11T11:44:27;42.30;;;28.30;;
17153;SDS011;8692;52.164;7.558;2023-02-11T11:53:00;41.70;;;27.10;;
17153;SDS011;8692;52.164;7.558;2023-02-11T11:55:34;43.57;;;27.57;;
17153;SDS011;8692;52.164;7.558;2023-02-11T11:58:09;45.37;;;27.43;;
17153;SDS011;8692;52.164;7.558;2023-02-11T12:00:51;47.70;;;27.10;;
17153;SDS011;8692;52.164;7.558;2023-02-11T12:03:30;50.40;;;26.90;;
17153;SDS011;8692;52.164;7.558;2023-02-11T12:06:25;45.27;;;25.63;;
17153;SDS011;8692;52.164;7.558;2023-02-11T12:09:06;45.13;;;27.43;;
17153;SDS011;8692;52.164;7.558;2023-02-11T12:11:54;45.27;;;27.70;;
17153;SDS011;8692;52.164;7.558;2023-02-11T12:14:42;38.53;;;25.87;;
17153;SDS011;8692;52.164;7.558;2023-02-11T12:17:23;40.47;;;26.10;;
17153;SDS011;8692;52.164;7.558;2023-02-11T12:20:15;42.37;;;26.10;;
17153;SDS011;8692;52.164;7.558;2023-02-11T12:22:57;45.53;;;26.90;;
17153;SDS011;8692;52.164;7.558;2023-02-11T12:25:40;39.83;;;25.07;;
17153;SDS011;8692;52.164;7.558;2023-02-11T12:28:18;39.60;;;26.43;;
17153;SDS011;8692;52.164;7.558;2023-02-11T12:30:56;38.73;;;26.77;;
17153;SDS011;8692;52.164;7.558;2023-02-11T12:33:36;36.37;;;25.03;;
17153;SDS011;8692;52.164;7.558;2023-02-11T12:36:31;37.13;;;24.70;;
17153;SDS011;8692;52.164;7.558;2023-02-11T12:39:14;37.70;;;24.47;;
17153;SDS011;8692;52.164;7.558;2023-02-11T12:41:58;37.90;;;24.23;;
17153;SDS011;8692;52.164;7.558;2023-02-11T12:45:01;38.23;;;25.60;;
17153;SDS011;8692;52.164;7.558;2023-02-11T12:47:44;35.17;;;24.37;;
17153;SDS011;8692;52.164;7.558;2023-02-11T12:50:24;38.93;;;25.23;;
17153;SDS011;8692;52.164;7.558;2023-02-11T12:53:08;34.53;;;23.73;;
17153;SDS011;8692;52.164;7.558;2023-02-11T12:55:55;32.50;;;23.10;;
17153;SDS011;8692;52.164;7.558;2023-02-11T12:58:27;35.10;;;23.10;;
17153;SDS011;8692;52.164;7.558;2023-02-11T13:01:14;35.50;;;23.87;;
17153;SDS011;8692;52.164;7.558;2023-02-11T13:03:50;37.30;;;23.90;;
17153;SDS011;8692;52.164;7.558;2023-02-11T13:06:24;31.90;;;24.07;;
17153;SDS011;8692;52.164;7.558;2023-02-11T13:08:59;34.00;;;23.87;;
17153;SDS011;8692;52.164;7.558;2023-02-11T13:11:34;35.27;;;22.47;;
17153;SDS011;8692;52.164;7.558;2023-02-11T13:14:06;30.83;;;22.23;;
17153;SDS011;8692;52.164;7.558;2023-02-11T13:16:42;37.87;;;25.30;;
17153;SDS011;8692;52.164;7.558;2023-02-11T13:19:15;34.20;;;23.47;;
17153;SDS011;8692;52.164;7.558;2023-02-11T13:21:53;37.27;;;23.20;;
17153;SDS011;8692;52.164;7.558;2023-02-11T13:24:30;30.80;;;22.73;;
17153;SDS011;8692;52.164;7.558;2023-02-11T13:27:08;31.53;;;23.07;;
17153;SDS011;8692;52.164;7.558;2023-02-11T13:30:04;34.80;;;23.47;;
17153;SDS011;8692;52.164;7.558;2023-02-11T13:33:05;32.93;;;21.97;;
17153;SDS011;8692;52.164;7.558;2023-02-11T13:35:45;31.63;;;22.23;;
17153;SDS011;8692;52.164;7.558;2023-02-11T13:38:19;40.20;;;23.57;;
17153;SDS011;8692;52.164;7.558;2023-02-11T13:40:58;32.07;;;22.43;;
17153;SDS011;8692;52.164;7.558;2023-02-11T13:43:31;33.53;;;22.13;;
17153;SDS011;8692;52.164;7.558;2023-02-11T13:46:04;30.80;;;21.80;;
17153;SDS011;8692;52.164;7.558;2023-02-11T13:48:35;31.67;;;22.30;;
17153;SDS011;8692;52.164;7.558;2023-02-11T13:51:05;30.17;;;21.13;;
17153;SDS011;8692;52.164;7.558;2023-02-11T13:53:44;26.43;;;21.30;;
17153;SDS011;8692;52.164;7.558;2023-02-11T13:56:27;28.17;;;20.60;;
17153;SDS011;8692;52.164;7.558;2023-02-11T13:59:01;26.90;;;20.77;;
17153;SDS011;8692;52.164;7.558;2023-02-11T14:01:41;31.47;;;20.43;;
17153;SDS011;8692;52.164;7.558;2023-02-11T14:04:45;31.57;;;21.47;;
17153;SDS011;8692;52.164;7.558;2023-02-11T14:10:58;26.63;;;19.60;;
17153;SDS011;8692;52.164;7.558;2023-02-11T14:13:28;31.83;;;19.13;;
17153;SDS011;8692;52.164;7.558;2023-02-11T14:16:05;33.07;;;19.90;;
17153;SDS011;8692;52.164;7.558;2023-02-11T14:18:36;27.03;;;21.70;;
17153;SDS011;8692;52.164;7.558;2023-02-11T14:21:28;31.63;;;20.27;;
17153;SDS011;8692;52.164;7.558;2023-02-11T14:27:07;26.10;;;20.30;;
17153;SDS011;8692;52.164;7.558;2023-02-11T14:29:50;30.27;;;20.50;;
17153;SDS011;8692;52.164;7.558;2023-02-11T14:32:47;30.63;;;19.50;;
17153;SDS011;8692;52.164;7.558;2023-02-11T14:35:33;30.50;;;20.57;;
17153;SDS011;8692;52.164;7.558;2023-02-11T14:38:09;27.33;;;18.73;;
17153;SDS011;8692;52.164;7.558;2023-02-11T14:40:47;27.60;;;19.30;;
17153;SDS011;8692;52.164;7.558;2023-02-11T14:43:29;23.90;;;18.33;;
17153;SDS011;8692;52.164;7.558;2023-02-11T14:46:02;30.63;;;20.00;;
17153;SDS011;8692;52.164;7.558;2023-02-11T14:48:32;30.23;;;19.37;;
17153;SDS011;8692;52.164;7.558;2023-02-11T14:51:03;27.50;;;18.40;;
17153;SDS011;8692;52.164;7.558;2023-02-11T14:53:35;24.80;;;19.50;;
17153;SDS011;8692;52.164;7.558;2023-02-11T14:56:15;27.03;;;18.93;;
17153;SDS011;8692;52.164;7.558;2023-02-11T14:58:47;23.47;;;18.47;;
17153;SDS011;8692;52.164;7.558;2023-02-11T15:01:24;26.33;;;16.87;;
17153;SDS011;8692;52.164;7.558;2023-02-11T15:03:57;24.43;;;19.23;;
17153;SDS011;8692;52.164;7.558;2023-02-11T15:06:27;25.27;;;18.67;;
17153;SDS011;8692;52.164;7.558;2023-02-11T15:08:58;26.90;;;16.97;;
17153;SDS011;8692;52.164;7.558;2023-02-11T15:11:30;26.33;;;18.60;;
17153;SDS011;8692;52.164;7.558;2023-02-11T15:14:06;30.00;;;20.13;;
17153;SDS011;8692;52.164;7.558;2023-02-11T15:16:39;28.67;;;18.33;;
17153;SDS011;8692;52.164;7.558;2023-02-11T15:19:14;25.87;;;19.07;;
17153;SDS011;8692;52.164;7.558;2023-02-11T15:21:47;26.27;;;18.47;;
17153;SDS011;8692;52.164;7.558;2023-02-11T15:24:21;26.07;;;18.90;;
17153;SDS011;8692;52.164;7.558;2023-02-11T15:26:55;24.10;;;18.07;;
17153;SDS011;8692;52.164;7.558;2023-02-11T15:29:24;24.57;;;18.27;;
17153;SDS011;8692;52.164;7.558;2023-02-11T15:32:03;27.23;;;18.50;;
17153;SDS011;8692;52.164;7.558;2023-02-11T15:34:42;22.90;;;18.03;;